Time;durP1;ratioP1;P1;durP2;ratioP2;P2;SDS_P1;SDS_P2;PMS_P1;PMS_P2;Temp;Humidity;BMP_temperature;BMP_pressure;BME280_temperature;BME280_humidity;BME280_pressure;Samples;Min_cycle;Max_cycle;Signal;HPM_P1;HPM_P2
2021/06/19 00:02:02;;;;;;;15.87;13.37;;;;;;;23.16;77.96;100472.27;125559;1093;64783;-81
2021/06/19 00:04:31;;;;;;;16.07;12.07;;;;;;;23.12;78.18;100465.75;125504;1093;64324;-81
2021/06/19 00:07:02;;;;;;;16.70;13.47;;;;;;;23.10;78.22;100473.32;125535;1093;64349;-81
2021/06/19 00:09:30;;;;;;;14.23;11.90;;;;;;;23.09;78.40;100466.27;125410;1092;64288;-81
2021/06/19 00:11:57;;;;;;;14.57;13.03;;;;;;;23.07;77.98;100463.02;125247;1093;64290;-82
2021/06/19 00:14:24;;;;;;;16.03;12.90;;;;;;;23.06;78.52;100469.52;125478;1093;64211;-80
2021/06/19 00:16:51;;;;;;;17.33;12.80;;;;;;;23.04;78.85;100468.96;125407;1093;64211;-80
2021/06/19 00:19:19;;;;;;;15.10;13.03;;;;;;;23.03;78.50;100469.22;125318;1092;64301;-80
2021/06/19 00:21:46;;;;;;;16.47;14.30;;;;;;;23.02;78.79;100465.70;125541;1093;64215;-80
2021/06/19 00:24:21;;;;;;;15.50;13.90;;;;;;;23.01;78.88;100464.06;125436;1092;64301;-80
2021/06/19 00:26:50;;;;;;;19.27;14.93;;;;;;;22.99;78.50;100471.59;125366;1093;64339;-80
2021/06/19 00:29:18;;;;;;;15.20;13.23;;;;;;;22.96;78.92;100474.84;125501;1093;64240;-80
2021/06/19 00:31:45;;;;;;;14.60;12.33;;;;;;;22.91;79.40;100475.63;125491;1092;64259;-80
2021/06/19 00:34:12;;;;;;;15.27;13.17;;;;;;;22.89;79.40;100482.39;125495;1092;64304;-80
2021/06/19 00:36:39;;;;;;;21.50;13.10;;;;;;;22.85;79.34;100482.08;125303;1093;64374;-79
2021/06/19 00:39:07;;;;;;;13.90;12.40;;;;;;;22.83;79.35;100480.72;125419;1092;64279;-80
2021/06/19 00:41:34;;;;;;;16.50;12.87;;;;;;;22.79;79.38;100481.23;125292;1093;64301;-80
2021/06/19 00:44:14;;;;;;;15.07;12.07;;;;;;;22.76;79.21;100476.36;125213;1093;64351;-81
2021/06/19 00:46:41;;;;;;;15.47;13.60;;;;;;;22.73;79.50;100479.56;125351;1093;64231;-81
2021/06/19 00:49:09;;;;;;;15.13;11.87;;;;;;;22.69;79.80;100485.77;125327;1093;64301;-80
2021/06/19 00:51:36;;;;;;;14.37;12.80;;;;;;;22.65;79.97;100490.06;125284;1093;64149;-80
2021/06/19 00:54:04;;;;;;;17.90;13.80;;;;;;;22.62;80.81;100496.00;125295;1092;64248;-80
2021/06/19 00:56:36;;;;;;;15.17;12.77;;;;;;;22.59;80.92;100494.64;125349;1092;64338;-80
2021/06/19 00:59:08;;;;;;;14.03;11.60;;;;;;;22.55;80.63;100498.94;125196;1093;64294;-80
2021/06/19 01:01:37;;;;;;;15.80;11.27;;;;;;;22.48;81.47;100501.02;125281;1093;64301;-80
2021/06/19 01:04:06;;;;;;;18.30;13.87;;;;;;;22.43;81.94;100498.30;125026;1092;64288;-82
2021/06/19 01:06:35;;;;;;;15.57;13.27;;;;;;;22.38;81.50;100497.18;125249;1093;64237;-82
2021/06/19 01:09:06;;;;;;;17.07;12.77;;;;;;;22.32;81.79;100500.91;125317;1093;64644;-79
2021/06/19 01:11:34;;;;;;;18.13;12.87;;;;;;;22.29;82.22;100506.01;125330;1093;64271;-80
2021/06/19 01:14:01;;;;;;;17.77;13.63;;;;;;;22.24;82.07;100498.67;125097;1093;64347;-79
2021/06/19 01:16:28;;;;;;;16.20;12.93;;;;;;;22.24;82.19;100498.67;125116;1093;64259;-81
2021/06/19 01:18:56;;;;;;;18.37;12.87;;;;;;;22.26;82.47;100503.83;125091;1092;64210;-79
2021/06/19 01:21:31;;;;;;;17.67;13.17;;;;;;;22.29;83.52;100509.55;125227;1093;64300;-80
2021/06/19 01:23:59;;;;;;;14.40;12.90;;;;;;;22.33;82.94;100507.13;125110;1093;64291;-80
2021/06/19 01:26:30;;;;;;;16.23;12.70;;;;;;;22.38;82.90;100507.19;125189;1093;64293;-80
2021/06/19 01:28:59;;;;;;;16.57;13.37;;;;;;;22.45;82.82;100504.26;125306;1093;64285;-80
2021/06/19 01:31:27;;;;;;;11.13;9.47;;;;;;;22.53;82.68;100503.78;125321;1093;64243;-80
2021/06/19 01:33:55;;;;;;;14.03;11.70;;;;;;;22.59;81.62;100500.05;126282;1092;64246;-81
2021/06/19 01:36:24;;;;;;;13.97;11.30;;;;;;;22.62;81.07;100509.52;127012;1093;64320;-82
2021/06/19 01:38:54;;;;;;;15.53;12.10;;;;;;;22.64;80.71;100497.36;127335;1092;64313;-82
2021/06/19 01:41:31;;;;;;;15.35;11.75;;;;;;;22.67;80.36;100493.32;127186;1093;62390;-82
2021/06/19 01:44:04;;;;;;;16.37;12.03;;;;;;;22.68;80.03;100509.30;126822;1093;64326;-82
2021/06/19 01:46:34;;;;;;;13.53;12.13;;;;;;;22.69;79.90;100496.58;125832;1093;64282;-80
2021/06/19 01:49:02;;;;;;;11.95;10.20;;;;;;;22.68;80.37;100493.07;125408;1093;64297;-81
2021/06/19 01:51:30;;;;;;;13.95;11.75;;;;;;;22.66;79.78;100500.63;125196;1093;64349;-81
2021/06/19 01:53:58;;;;;;;12.17;10.77;;;;;;;22.67;79.38;100499.53;125195;1092;64208;-82
2021/06/19 01:56:25;;;;;;;13.53;11.53;;;;;;;22.68;79.15;100501.18;125383;1093;64198;-80
2021/06/19 01:58:52;;;;;;;13.00;10.87;;;;;;;22.69;79.07;100502.80;125231;1092;64290;-81
2021/06/19 02:01:20;;;;;;;16.00;10.30;;;;;;;22.70;79.21;100498.23;125300;1093;64892;-80
2021/06/19 02:03:48;;;;;;;11.87;9.77;;;;;;;22.68;79.15;100500.38;124988;1093;64393;-81
2021/06/19 02:06:16;;;;;;;12.10;10.10;;;;;;;22.66;79.18;100505.22;125215;1093;64261;-80
2021/06/19 02:08:56;;;;;;;13.57;10.80;;;;;;;22.64;78.89;100491.15;125166;1093;64378;-80
2021/06/19 02:11:23;;;;;;;12.55;10.65;;;;;;;22.63;78.86;100494.91;125274;1093;64295;-80
2021/06/19 02:13:50;;;;;;;12.13;10.70;;;;;;;22.60;78.97;100496.25;125173;1093;64266;-80
2021/06/19 02:16:17;;;;;;;12.33;11.13;;;;;;;22.58;79.19;100498.40;125029;1093;64371;-80
2021/06/19 02:18:45;;;;;;;12.90;10.23;;;;;;;22.55;79.01;100496.23;125129;1092;64210;-80
2021/06/19 02:21:12;;;;;;;12.33;9.67;;;;;;;22.54;78.86;100491.88;125345;1093;64497;-82
2021/06/19 02:23:39;;;;;;;13.23;10.60;;;;;;;22.56;78.53;100479.73;125160;1092;64288;-82
2021/06/19 02:26:06;;;;;;;12.70;9.87;;;;;;;22.62;77.92;100485.99;125186;1092;64304;-82
2021/06/19 02:28:33;;;;;;;12.60;9.00;;;;;;;22.65;78.05;100498.98;125109;1093;64287;-85
2021/06/19 02:31:00;;;;;;;14.53;9.80;;;;;;;22.69;77.48;100504.69;125202;1093;64281;-84
2021/06/19 02:33:27;;;;;;;12.70;9.77;;;;;;;22.72;77.17;100504.19;125269;1092;64209;-83
2021/06/19 02:35:55;;;;;;;16.67;11.43;;;;;;;22.74;76.79;100502.84;125032;1093;64321;-82
2021/06/19 02:38:22;;;;;;;14.77;10.00;;;;;;;22.77;76.22;100498.80;125123;1093;64348;-82
2021/06/19 02:40:51;;;;;;;14.67;9.60;;;;;;;22.80;76.20;100501.80;125350;1093;64235;-83
2021/06/19 02:43:21;;;;;;;11.57;9.27;;;;;;;22.84;75.43;100498.56;125053;1093;64311;-83
2021/06/19 02:45:48;;;;;;;13.07;9.87;;;;;;;22.87;75.29;100495.36;125690;1093;64304;-83
2021/06/19 02:48:15;;;;;;;14.23;9.30;;;;;;;22.89;74.67;100504.02;127241;1093;63905;-83
2021/06/19 02:50:44;;;;;;;15.10;10.50;;;;;;;22.94;73.89;100498.63;125885;1093;64204;-83
2021/06/19 02:53:12;;;;;;;14.87;9.63;;;;;;;22.98;73.57;100499.73;126864;1092;64233;-83
2021/06/19 02:55:43;;;;;;;10.07;7.83;;;;;;;23.04;73.69;100517.66;125773;1093;64205;-85
2021/06/19 02:58:13;;;;;;;15.30;9.60;;;;;;;23.08;73.93;100518.77;125688;1092;64387;-84
2021/06/19 03:00:40;;;;;;;11.57;9.37;;;;;;;23.10;73.75;100504.95;125395;1092;64376;-85
2021/06/19 03:03:08;;;;;;;10.75;8.50;;;;;;;23.10;73.41;100505.79;125289;1093;64207;-83
2021/06/19 03:05:37;;;;;;;13.70;9.37;;;;;;;23.11;72.94;100504.70;125756;1092;64330;-84
2021/06/19 03:08:06;;;;;;;11.77;9.97;;;;;;;23.13;72.92;100505.25;125508;1093;64205;-84
2021/06/19 03:10:36;;;;;;;13.80;9.07;;;;;;;23.17;73.29;100511.77;125546;1093;64204;-84
2021/06/19 03:13:04;;;;;;;15.27;9.40;;;;;;;23.20;73.08;100521.24;125438;1092;64268;-85
2021/06/19 03:15:32;;;;;;;10.63;9.20;;;;;;;23.23;72.51;100514.48;125111;1092;64377;-84
2021/06/19 03:17:59;;;;;;;9.60;8.17;;;;;;;23.30;72.16;100525.91;125111;1093;64387;-85
2021/06/19 03:20:27;;;;;;;11.50;8.30;;;;;;;23.36;71.97;100531.07;125297;1092;64354;-85
2021/06/19 03:22:57;;;;;;;13.43;8.40;;;;;;;23.40;71.41;100542.20;125184;1093;64287;-84
2021/06/19 03:25:42;;;;;;;10.57;7.80;;;;;;;23.40;71.87;100521.34;125063;1093;64462;-84
2021/06/19 03:28:12;;;;;;;10.80;8.37;;;;;;;23.43;71.87;100514.58;126628;1093;64206;-86
2021/06/19 03:30:42;;;;;;;11.40;8.40;;;;;;;23.45;71.88;100492.67;125348;1092;64294;-86
2021/06/19 03:33:10;;;;;;;10.65;7.65;;;;;;;23.46;71.86;100505.95;125151;1093;64294;-88
2021/06/19 03:35:38;;;;;;;9.57;7.80;;;;;;;23.47;71.83;100523.00;124947;1092;64268;-84
2021/06/19 03:38:06;;;;;;;13.93;9.17;;;;;;;23.46;71.97;100524.89;125117;1093;64387;-84
2021/06/19 03:40:35;;;;;;;9.20;8.20;;;;;;;23.43;71.64;100530.02;125131;1093;64307;-84
2021/06/19 03:43:04;;;;;;;10.50;9.40;;;;;;;23.38;71.75;100534.33;125142;1093;64336;-84
2021/06/19 03:45:35;;;;;;;14.53;9.70;;;;;;;23.34;71.51;100524.30;125077;1092;64261;-85
2021/06/19 03:48:05;;;;;;;11.80;8.07;;;;;;;23.30;71.73;100526.70;124988;1093;64304;-84
2021/06/19 03:50:33;;;;;;;12.57;8.70;;;;;;;23.27;71.42;100519.13;125025;1093;64467;-84
2021/06/19 03:53:01;;;;;;;9.50;7.93;;;;;;;23.25;71.35;100520.45;125335;1092;64330;-84
2021/06/19 03:55:29;;;;;;;10.37;8.17;;;;;;;23.21;71.63;100520.18;125031;1092;64284;-85
2021/06/19 03:57:58;;;;;;;11.10;7.60;;;;;;;23.17;71.81;100517.18;125068;1093;64208;-84
2021/06/19 04:00:26;;;;;;;12.30;8.10;;;;;;;23.11;71.83;100520.93;125059;1093;64318;-84
2021/06/19 04:02:53;;;;;;;10.83;8.60;;;;;;;23.07;71.98;100532.55;124894;1093;64536;-84
2021/06/19 04:05:21;;;;;;;16.30;9.73;;;;;;;23.01;72.75;100542.52;125113;1093;64285;-83
2021/06/19 04:07:48;;;;;;;14.25;9.10;;;;;;;22.95;72.65;100535.41;125078;1093;64285;-85
2021/06/19 04:10:17;;;;;;;12.97;8.37;;;;;;;22.88;73.10;100537.55;124961;1093;64288;-79
2021/06/19 04:12:46;;;;;;;13.03;7.50;;;;;;;22.81;73.49;100535.06;125016;1093;64311;-79
2021/06/19 04:15:14;;;;;;;13.30;7.80;;;;;;;22.76;73.60;100549.38;124877;1093;64285;-79
2021/06/19 04:17:42;;;;;;;11.80;7.97;;;;;;;22.72;73.55;100548.27;125193;1093;64316;-79
2021/06/19 04:20:12;;;;;;;9.80;7.25;;;;;;;22.70;73.68;100547.70;124884;1093;65454;-79
2021/06/19 04:22:41;;;;;;;14.23;8.97;;;;;;;22.66;73.80;100554.70;125036;1093;64371;-79
2021/06/19 04:25:10;;;;;;;9.20;6.23;;;;;;;22.66;73.83;100554.70;125000;1093;64306;-79
2021/06/19 04:27:40;;;;;;;10.37;7.33;;;;;;;22.67;73.49;100559.02;125241;1093;64241;-79
2021/06/19 04:30:10;;;;;;;9.90;6.30;;;;;;;22.71;73.53;100553.92;125123;1092;64323;-79
2021/06/19 04:32:39;;;;;;;9.07;7.43;;;;;;;22.76;73.61;100548.53;125240;1093;64304;-79
2021/06/19 04:35:07;;;;;;;12.50;6.83;;;;;;;22.79;73.66;100551.55;125074;1092;65027;-79
2021/06/19 04:37:34;;;;;;;9.47;6.40;;;;;;;22.84;74.08;100556.17;124947;1092;64329;-79
2021/06/19 04:42:36;;;;;;;13.00;7.97;;;;;;;22.95;74.31;100557.05;125036;1093;64628;-79
2021/06/19 04:45:05;;;;;;;12.87;6.60;;;;;;;23.01;73.62;100561.45;125382;1093;64285;-79
2021/06/19 04:47:34;;;;;;;10.83;6.80;;;;;;;23.08;73.53;100572.88;125121;1093;64361;-78
2021/06/19 04:50:04;;;;;;;14.13;8.10;;;;;;;23.15;73.72;100576.16;125488;1093;64374;-79
2021/06/19 04:52:33;;;;;;;13.00;8.10;;;;;;;23.22;73.42;100577.82;127519;1093;64392;-80
2021/06/19 04:55:03;;;;;;;8.13;6.47;;;;;;;23.28;73.37;100591.11;125316;1092;64301;-81
2021/06/19 04:57:30;;;;;;;12.57;7.10;;;;;;;23.36;73.13;100587.11;125097;1092;64233;-79
2021/06/19 04:59:57;;;;;;;13.73;6.20;;;;;;;23.44;72.72;100581.20;124832;1092;64610;-78
2021/06/19 05:02:24;;;;;;;16.40;7.27;;;;;;;23.51;72.36;100576.34;124942;1092;64387;-78
2021/06/19 05:04:52;;;;;;;6.50;5.23;;;;;;;23.56;72.19;100587.19;125019;1093;64368;-81
2021/06/19 05:07:19;;;;;;;11.40;6.47;;;;;;;23.63;71.85;100603.19;125016;1093;64273;-80
2021/06/19 05:09:46;;;;;;;10.40;6.20;;;;;;;23.70;71.47;100597.55;124980;1092;64661;-79
2021/06/19 05:12:13;;;;;;;13.50;6.90;;;;;;;23.77;71.14;100600.84;124996;1093;64303;-79
2021/06/19 05:14:40;;;;;;;11.17;5.20;;;;;;;23.84;70.94;100606.83;125014;1093;64326;-81
2021/06/19 05:17:07;;;;;;;15.03;7.33;;;;;;;23.91;69.99;100607.41;125034;1092;64260;-80
2021/06/19 05:19:34;;;;;;;10.97;6.10;;;;;;;23.96;69.43;100615.54;124958;1092;64281;-80
2021/06/19 05:22:01;;;;;;;10.20;6.20;;;;;;;24.06;69.56;100619.38;125063;1093;64285;-79
2021/06/19 05:24:28;;;;;;;7.80;5.55;;;;;;;24.12;68.98;100629.13;125026;1093;64261;-80
2021/06/19 05:26:56;;;;;;;11.03;6.00;;;;;;;24.18;68.38;100622.64;125009;1093;64298;-79
2021/06/19 05:29:23;;;;;;;12.70;5.75;;;;;;;24.24;68.69;100627.00;124877;1092;64385;-78
2021/06/19 05:31:50;;;;;;;9.40;6.27;;;;;;;24.21;68.86;100622.93;124914;1093;64299;-78
2021/06/19 05:34:17;;;;;;;11.93;5.67;;;;;;;24.16;68.92;100627.52;125003;1092;64661;-78
2021/06/19 05:36:44;;;;;;;7.13;5.43;;;;;;;24.10;68.75;100628.58;124977;1093;64314;-79
2021/06/19 05:39:11;;;;;;;8.33;5.97;;;;;;;24.09;68.76;100632.38;125019;1093;64219;-79
2021/06/19 05:41:39;;;;;;;6.50;4.40;;;;;;;24.11;69.00;100631.03;125006;1093;64240;-81
2021/06/19 05:44:08;;;;;;;8.57;5.17;;;;;;;24.15;68.79;100634.03;124995;1091;64285;-79
2021/06/19 05:46:36;;;;;;;8.00;5.10;;;;;;;24.22;68.43;100634.58;127159;1093;61715;-81
2021/06/19 05:49:05;;;;;;;10.40;4.40;;;;;;;24.32;67.89;100634.61;128147;1093;62601;-80
2021/06/19 05:51:33;;;;;;;7.53;3.50;;;;;;;24.39;66.58;100648.70;126983;1093;61900;-80
2021/06/19 05:54:02;;;;;;;7.00;4.10;;;;;;;24.46;65.72;100644.92;124954;1093;64380;-78
2021/06/19 05:56:30;;;;;;;6.03;3.27;;;;;;;24.54;65.61;100664.22;125265;1092;64780;-82
2021/06/19 05:58:58;;;;;;;8.40;4.45;;;;;;;24.66;65.49;100663.98;124993;1093;64375;-79
2021/06/19 06:01:31;;;;;;;5.60;3.43;;;;;;;24.72;64.28;100662.09;125144;1093;64304;-79
2021/06/19 06:03:59;;;;;;;8.00;3.90;;;;;;;24.79;64.11;100659.91;127481;1093;64325;-81
2021/06/19 06:06:27;;;;;;;4.63;3.20;;;;;;;24.88;63.25;100669.13;125426;1093;64377;-83
2021/06/19 06:08:54;;;;;;;8.80;3.53;;;;;;;24.95;62.26;100660.72;125047;1093;64304;-81
2021/06/19 06:11:21;;;;;;;4.37;2.37;;;;;;;25.02;62.49;100659.37;125023;1093;64301;-81
2021/06/19 06:13:48;;;;;;;3.83;2.20;;;;;;;25.03;61.54;100661.02;125192;1092;64278;-81
2021/06/19 06:16:15;;;;;;;4.47;2.67;;;;;;;25.08;60.62;100672.95;125189;1092;64325;-79
2021/06/19 06:18:42;;;;;;;2.97;2.10;;;;;;;25.09;59.46;100667.23;124961;1092;64303;-79
2021/06/19 06:21:09;;;;;;;6.00;2.23;;;;;;;25.08;59.15;100672.95;125120;1093;64211;-80
2021/06/19 06:23:37;;;;;;;4.00;2.20;;;;;;;25.12;59.27;100685.70;124968;1093;64343;-78
2021/06/19 06:26:04;;;;;;;5.03;2.03;;;;;;;25.14;59.12;100688.95;124790;1093;64323;-78
2021/06/19 06:28:31;;;;;;;6.67;2.97;;;;;;;25.19;59.61;100691.66;125062;1093;64397;-78
2021/06/19 06:30:58;;;;;;;3.55;2.30;;;;;;;25.25;59.17;100684.36;125016;1093;64431;-78
2021/06/19 06:33:26;;;;;;;3.85;2.40;;;;;;;25.32;59.23;100692.23;124863;1093;65084;-78
2021/06/19 06:35:55;;;;;;;6.60;2.83;;;;;;;25.42;59.00;100694.94;125086;1093;64284;-78
2021/06/19 06:38:23;;;;;;;2.77;2.10;;;;;;;25.48;58.50;100706.58;125293;1093;64258;-78
2021/06/19 06:40:50;;;;;;;5.70;2.20;;;;;;;25.49;57.73;100706.31;125173;1093;64240;-80
2021/06/19 06:43:17;;;;;;;4.33;2.20;;;;;;;25.52;57.71;100703.03;125124;1093;64301;-79
2021/06/19 06:45:45;;;;;;;4.93;2.17;;;;;;;25.54;58.42;100703.58;125156;1093;64285;-79
2021/06/19 06:48:12;;;;;;;4.27;2.50;;;;;;;25.60;58.85;100696.23;125131;1093;64301;-78
2021/06/19 06:50:40;;;;;;;3.55;2.20;;;;;;;25.71;58.59;100680.72;124937;1093;64265;-78
2021/06/19 06:53:08;;;;;;;3.13;2.23;;;;;;;25.79;57.32;100696.46;124720;1093;65176;-77
2021/06/19 06:55:36;;;;;;;3.30;1.70;;;;;;;25.81;56.77;100703.23;125452;1092;64281;-80
2021/06/19 06:58:03;;;;;;;5.40;2.47;;;;;;;25.87;57.58;100687.73;124990;1093;64289;-77
2021/06/19 07:00:30;;;;;;;5.80;2.50;;;;;;;25.91;57.45;100680.69;125022;1093;65321;-78
2021/06/19 07:02:58;;;;;;;8.53;2.70;;;;;;;25.90;56.90;100689.11;124970;1092;64298;-79
2021/06/19 07:05:25;;;;;;;3.73;2.13;;;;;;;25.90;56.14;100695.36;125137;1093;64343;-79
2021/06/19 07:07:52;;;;;;;7.57;2.63;;;;;;;25.98;56.89;100694.78;125119;1093;64396;-79
2021/06/19 07:10:19;;;;;;;5.07;2.60;;;;;;;26.03;57.08;100697.50;125065;1093;64250;-79
2021/06/19 07:12:46;;;;;;;4.60;3.00;;;;;;;26.12;56.92;100696.89;124980;1093;64314;-79
2021/06/19 07:15:16;;;;;;;5.85;2.50;;;;;;;26.20;56.33;100688.99;125014;1093;64320;-78
2021/06/19 07:17:44;;;;;;;6.83;3.20;;;;;;;26.26;55.50;100692.48;125217;1092;64269;-79
2021/06/19 07:20:13;;;;;;;3.57;2.83;;;;;;;26.34;56.36;100699.25;124874;1091;64272;-79
2021/06/19 07:22:41;;;;;;;7.67;2.83;;;;;;;26.39;56.34;100694.58;124947;1093;64397;-81
2021/06/19 07:25:09;;;;;;;5.73;3.60;;;;;;;26.44;55.21;100700.00;124907;1092;64287;-79
2021/06/19 07:27:36;;;;;;;4.40;2.63;;;;;;;26.50;55.77;100716.28;125038;1093;64288;-79
2021/06/19 07:30:06;;;;;;;5.20;2.80;;;;;;;26.56;55.34;100696.11;125106;1092;64288;-79
2021/06/19 07:32:34;;;;;;;4.80;3.20;;;;;;;26.66;55.57;100706.97;125007;1092;64282;-79
2021/06/19 07:35:02;;;;;;;5.23;2.70;;;;;;;26.66;54.90;100695.28;124910;1093;64397;-79
2021/06/19 07:37:29;;;;;;;6.33;3.03;;;;;;;26.70;54.98;100691.70;124922;1093;64400;-74
2021/06/19 07:39:56;;;;;;;4.03;2.60;;;;;;;26.74;55.57;100702.84;124882;1093;64288;-75
2021/06/19 07:42:23;;;;;;;5.55;3.30;;;;;;;26.76;54.00;100693.30;124867;1091;64199;-73
2021/06/19 07:44:50;;;;;;;5.63;2.90;;;;;;;26.72;53.55;100691.43;124894;1093;64451;-74
2021/06/19 07:47:18;;;;;;;4.50;3.07;;;;;;;26.71;53.91;100698.75;124917;1092;64301;-75
2021/06/19 07:49:45;;;;;;;6.27;2.53;;;;;;;26.74;54.68;100697.40;124877;1093;64285;-75
2021/06/19 07:52:12;;;;;;;5.40;2.83;;;;;;;26.75;53.86;100704.45;124908;1093;64313;-75
2021/06/19 07:54:39;;;;;;;5.73;2.87;;;;;;;26.74;53.82;100690.05;124877;1093;64866;-75
2021/06/19 07:57:07;;;;;;;7.00;3.63;;;;;;;26.74;53.94;100692.77;124870;1092;64352;-75
2021/06/19 07:59:35;;;;;;;5.63;2.77;;;;;;;26.79;54.19;100695.44;124900;1093;64406;-75
2021/06/19 08:02:05;;;;;;;3.63;2.03;;;;;;;26.84;54.16;100700.02;124838;1093;64719;-75
2021/06/19 08:04:36;;;;;;;5.50;2.33;;;;;;;26.85;53.76;100699.75;124936;1093;64285;-75
2021/06/19 08:07:04;;;;;;;5.37;3.07;;;;;;;26.91;53.45;100703.25;124886;1093;64201;-75
2021/06/19 08:09:31;;;;;;;3.93;3.23;;;;;;;26.99;53.60;100704.53;125181;1093;64234;-75
2021/06/19 08:11:59;;;;;;;6.40;2.47;;;;;;;27.04;53.30;100707.23;124851;1093;64227;-74
2021/06/19 08:14:26;;;;;;;5.33;3.17;;;;;;;27.11;53.70;100707.70;124847;1093;64313;-74
2021/06/19 08:16:55;;;;;;;5.23;2.57;;;;;;;27.19;54.26;100714.45;124655;1093;64304;-74
2021/06/19 08:19:23;;;;;;;5.70;3.07;;;;;;;27.33;53.74;100709.17;124955;1093;64288;-74
2021/06/19 08:21:51;;;;;;;8.00;3.30;;;;;;;27.41;53.42;100711.28;124669;1093;64355;-74
2021/06/19 08:24:19;;;;;;;5.47;2.63;;;;;;;27.48;53.04;100711.77;124887;1093;64403;-73
2021/06/19 08:26:46;;;;;;;4.53;3.17;;;;;;;27.49;51.64;100718.83;124741;1093;64390;-76
2021/06/19 08:29:13;;;;;;;4.77;3.23;;;;;;;27.52;51.42;100712.82;124901;1093;64262;-74
2021/06/19 08:31:41;;;;;;;5.47;3.33;;;;;;;27.55;51.97;100728.58;124747;1093;64291;-74
2021/06/19 08:34:09;;;;;;;5.25;3.20;;;;;;;27.58;51.94;100722.54;124992;1093;64307;-74
2021/06/19 08:36:38;;;;;;;5.43;3.43;;;;;;;27.64;51.87;100720.58;124873;1093;64317;-74
2021/06/19 08:39:05;;;;;;;5.73;3.30;;;;;;;27.66;52.40;100719.19;125105;1093;64358;-74
2021/06/19 08:41:32;;;;;;;6.30;2.90;;;;;;;27.75;51.99;100721.28;124929;1093;64288;-75
2021/06/19 08:44:03;;;;;;;6.97;3.07;;;;;;;27.76;50.98;100712.83;124941;1092;64323;-75
2021/06/19 08:46:31;;;;;;;7.60;3.40;;;;;;;27.80;51.85;100713.06;125229;1091;64381;-71
2021/06/19 08:48:59;;;;;;;5.80;3.30;;;;;;;27.83;51.60;100723.38;125135;1093;64368;-73
2021/06/19 08:51:26;;;;;;;7.67;3.10;;;;;;;27.85;51.00;100726.63;124884;1091;64282;-73
2021/06/19 08:53:54;;;;;;;4.27;2.57;;;;;;;27.83;50.65;100712.47;124920;1093;64668;-74
2021/06/19 08:56:23;;;;;;;4.20;2.40;;;;;;;27.89;51.36;100727.70;124840;1093;65147;-73
2021/06/19 08:58:51;;;;;;;5.43;2.97;;;;;;;27.83;52.26;100723.38;124911;1093;64415;-73
2021/06/19 09:01:18;;;;;;;2.60;2.23;;;;;;;27.76;50.66;100731.09;124713;1093;64397;-74
2021/06/19 09:03:45;;;;;;;3.50;2.67;;;;;;;27.80;51.14;100723.97;124917;1093;64330;-73
2021/06/19 09:06:27;;;;;;;3.90;2.77;;;;;;;27.83;50.26;100724.18;124715;1093;64324;-73
2021/06/19 09:09:03;;;;;;;5.83;2.80;;;;;;;27.90;49.35;100717.60;124992;1093;64214;-73
2021/06/19 09:11:34;;;;;;;4.30;2.53;;;;;;;27.88;49.16;100720.61;125056;1093;64249;-73
2021/06/19 09:14:23;;;;;;;4.03;2.47;;;;;;;27.99;49.13;100705.77;125029;1093;64394;-73
2021/06/19 09:17:03;;;;;;;4.05;2.35;;;;;;;28.14;47.55;100706.69;124853;1093;64307;-73
2021/06/19 09:19:31;;;;;;;4.13;2.40;;;;;;;28.16;48.42;100705.28;125770;1093;64208;-73
2021/06/19 09:22:16;;;;;;;4.20;2.40;;;;;;;28.25;48.18;100710.90;124861;1093;64305;-73
2021/06/19 09:24:51;;;;;;;5.50;2.40;;;;;;;28.23;47.46;100708.45;124846;1093;64467;-73
2021/06/19 09:27:38;;;;;;;3.10;1.87;;;;;;;28.30;48.01;100705.36;124698;1093;64339;-74
2021/06/19 09:30:11;;;;;;;3.33;2.20;;;;;;;28.34;46.21;100716.50;124666;1092;64287;-73
2021/06/19 09:32:47;;;;;;;3.05;1.80;;;;;;;28.34;46.92;100705.59;124914;1093;64230;-72
2021/06/19 09:35:19;;;;;;;3.17;2.27;;;;;;;28.39;45.62;100708.23;124959;1093;64297;-74
2021/06/19 09:37:49;;;;;;;2.97;1.80;;;;;;;28.45;46.96;100707.87;124971;1093;64393;-73
2021/06/19 09:40:36;;;;;;;3.53;2.00;;;;;;;28.59;46.62;100712.64;124955;1093;64419;-73
2021/06/19 09:43:22;;;;;;;4.27;2.20;;;;;;;28.74;46.98;100701.48;124916;1094;64284;-74
2021/06/19 09:46:03;;;;;;;5.73;1.90;;;;;;;28.79;46.47;100706.84;124984;1093;64281;-74
2021/06/19 09:48:33;;;;;;;4.90;2.37;;;;;;;28.86;45.89;100717.42;124731;1093;64441;-73
2021/06/19 09:51:24;;;;;;;3.87;1.67;;;;;;;28.90;45.43;100717.61;124633;1093;65243;-73
2021/06/19 09:54:02;;;;;;;2.97;1.87;;;;;;;28.83;45.53;100712.53;125115;1092;64265;-74
2021/06/19 09:56:29;;;;;;;3.43;1.70;;;;;;;28.91;45.68;100711.06;124871;1093;64298;-73
2021/06/19 09:58:57;;;;;;;5.73;1.83;;;;;;;29.01;45.30;100716.36;124885;1093;64374;-73
2021/06/19 10:01:39;;;;;;;3.80;1.77;;;;;;;29.00;44.38;100714.72;124851;1093;64306;-73
2021/06/19 10:04:09;;;;;;;3.95;1.10;;;;;;;28.95;43.96;100717.55;124953;1092;64208;-74
2021/06/19 10:06:37;;;;;;;2.45;1.50;;;;;;;28.89;44.25;100721.47;125162;1093;64384;-73
2021/06/19 10:09:06;;;;;;;4.83;1.60;;;;;;;28.84;44.15;100714.17;124866;1093;64301;-74
2021/06/19 10:11:33;;;;;;;2.63;1.40;;;;;;;28.86;43.40;100706.50;124998;1093;64208;-73
2021/06/19 10:14:02;;;;;;;2.63;1.23;;;;;;;28.90;43.37;100701.23;124913;1093;64292;-74
2021/06/19 10:16:30;;;;;;;2.73;1.43;;;;;;;28.94;44.05;100718.64;125040;1093;64320;-73
2021/06/19 10:18:58;;;;;;;2.45;1.20;;;;;;;28.91;42.61;100722.78;124940;1092;64979;-74
2021/06/19 10:21:26;;;;;;;7.03;1.47;;;;;;;28.87;42.30;100713.56;124865;1093;65481;-73
2021/06/19 10:23:54;;;;;;;2.27;1.10;;;;;;;28.95;42.54;100723.81;124911;1093;64339;-74
2021/06/19 10:26:24;;;;;;;3.83;1.47;;;;;;;29.00;42.45;100703.80;125074;1093;64288;-74
2021/06/19 10:28:59;;;;;;;11.23;1.40;;;;;;;28.98;42.34;100715.02;124670;1093;64311;-74
2021/06/19 10:31:27;;;;;;;3.37;1.40;;;;;;;28.97;42.54;100707.14;124678;1093;64368;-74
2021/06/19 10:33:54;;;;;;;3.70;1.70;;;;;;;28.99;41.86;100710.39;124802;1092;65869;-73
2021/06/19 10:36:37;;;;;;;2.23;1.30;;;;;;;29.07;42.46;100702.31;124639;1093;64347;-77
2021/06/19 10:39:05;;;;;;;3.03;1.27;;;;;;;29.13;42.60;100722.17;125037;1093;64211;-74
2021/06/19 10:41:46;;;;;;;1.77;1.10;;;;;;;29.08;40.66;100703.13;124751;1092;64339;-76
2021/06/19 10:44:14;;;;;;;2.20;1.20;;;;;;;29.03;42.08;100701.29;124929;1093;64416;-74
2021/06/19 10:46:41;;;;;;;2.80;1.00;;;;;;;29.06;40.84;100694.41;124719;1093;64374;-73
2021/06/19 10:49:20;;;;;;;3.87;0.90;;;;;;;29.15;39.83;100692.64;124826;1093;64384;-74
2021/06/19 10:51:48;;;;;;;2.27;0.90;;;;;;;29.39;39.47;100672.53;124880;1093;64272;-75
2021/06/19 10:54:17;;;;;;;1.20;0.67;;;;;;;29.43;38.29;100692.69;124931;1092;64409;-75
2021/06/19 10:56:57;;;;;;;0.97;0.57;;;;;;;29.42;36.62;100691.08;125010;1092;64284;-73
2021/06/19 10:59:29;;;;;;;2.17;0.70;;;;;;;29.45;36.82;100674.06;124771;1093;64840;-75
2021/06/19 11:01:58;;;;;;;3.00;1.00;;;;;;;29.41;37.87;100679.34;124817;1093;64240;-75
2021/06/19 11:07:08;;;;;;;1.73;0.80;;;;;;;29.51;36.80;100672.86;124850;1093;64415;-76
2021/06/19 11:09:37;;;;;;;1.77;0.60;;;;;;;29.59;36.83;100674.89;124811;1093;64296;-77
2021/06/19 11:12:07;;;;;;;2.40;0.90;;;;;;;29.60;37.01;100684.69;124885;1093;64712;-75
2021/06/19 11:14:40;;;;;;;1.10;0.60;;;;;;;29.56;34.84;100672.77;125514;1092;64710;-75
2021/06/19 11:17:30;;;;;;;1.03;0.60;;;;;;;29.60;36.18;100673.76;124759;1093;64288;-77
2021/06/19 11:20:02;;;;;;;3.47;0.73;;;;;;;29.65;37.25;100667.41;124837;1093;64307;-75
2021/06/19 11:22:39;;;;;;;1.20;0.70;;;;;;;29.75;36.76;100666.41;125164;1093;64304;-75
2021/06/19 11:25:27;;;;;;;1.00;0.60;;;;;;;29.91;34.79;100675.92;124898;1093;64288;-74
2021/06/19 11:28:09;;;;;;;1.20;0.67;;;;;;;29.96;36.59;100673.06;125175;1093;64311;-74